Time;durP1;ratioP1;P1;durP2;ratioP2;P2;SDS_P1;SDS_P2;PMS_P1;PMS_P2;Temp;Humidity;BMP_temperature;BMP_pressure;BME280_temperature;BME280_humidity;BME280_pressure;Samples;Min_cycle;Max_cycle;Signal;HPM_P1;HPM_P2
2022/10/21 00:01:48;;;;;;;24.98;17.20;;;13.80;64.70;;;;;;7355393;19;20018;-69
2022/10/21 00:04:17;;;;;;;25.25;17.48;;;13.80;64.50;;;;;;7357707;19;20112;-69
2022/10/21 00:06:47;;;;;;;32.25;19.33;;;13.70;64.10;;;;;;7356752;19;20465;-69
2022/10/21 00:09:17;;;;;;;28.52;17.73;;;13.60;64.20;;;;;;7380280;19;20018;-68
2022/10/21 00:11:47;;;;;;;29.80;18.83;;;13.60;64.40;;;;;;7353079;19;20039;-68
2022/10/21 00:14:19;;;;;;;28.88;19.73;;;13.60;64.50;;;;;;7356607;19;20014;-68
2022/10/21 00:16:49;;;;;;;28.50;17.73;;;13.60;64.90;;;;;;7356896;19;20022;-67
2022/10/21 00:19:19;;;;;;;25.48;18.15;;;13.60;64.80;;;;;;7358756;19;20042;-69
2022/10/21 00:21:49;;;;;;;29.17;18.65;;;13.50;64.10;;;;;;7351752;19;20021;-70
2022/10/21 00:24:18;;;;;;;31.23;19.42;;;13.50;64.70;;;;;;7378831;19;20038;-69
2022/10/21 00:26:50;;;;;;;28.52;17.85;;;13.50;64.80;;;;;;7357285;19;20604;-68
2022/10/21 00:29:23;;;;;;;28.90;18.50;;;13.50;64.90;;;;;;7357368;19;20498;-68
2022/10/21 00:31:55;;;;;;;28.90;18.35;;;13.50;65.40;;;;;;7354264;19;20583;-68
2022/10/21 00:34:25;;;;;;;29.33;18.77;;;13.40;65.60;;;;;;7366130;19;20010;-68
2022/10/21 00:36:59;;;;;;;;;;;13.40;65.90;;;;;;7363135;19;20019;-68
2022/10/21 00:39:29;;;;;;;29.30;17.83;;;13.40;66.30;;;;;;7386173;19;20332;-69
2022/10/21 00:41:58;;;;;;;28.80;18.77;;;13.40;66.60;;;;;;7359133;19;20421;-68
2022/10/21 00:44:31;;;;;;;31.25;19.33;;;13.40;67.10;;;;;;7364912;19;20010;-68
2022/10/21 00:47:05;;;;;;;33.72;20.05;;;13.40;67.10;;;;;;7363421;19;20013;-68
2022/10/21 00:49:41;;;;;;;38.75;20.52;;;13.40;67.20;;;;;;7364223;19;20776;-68
2022/10/21 00:52:16;;;;;;;35.90;19.83;;;13.30;67.30;;;;;;7357024;19;20020;-68
2022/10/21 00:54:48;;;;;;;32.08;20.45;;;13.30;68.00;;;;;;7364962;19;20014;-69
2022/10/21 00:57:20;;;;;;;31.40;20.27;;;13.40;69.40;;;;;;7385654;19;20010;-68
2022/10/21 00:59:57;;;;;;;31.33;20.95;;;13.30;68.80;;;;;;7365032;19;20038;-68
2022/10/21 01:02:28;;;;;;;35.58;21.40;;;13.30;68.80;;;;;;7359013;19;20046;-68
2022/10/21 01:05:00;;;;;;;34.55;21.38;;;13.30;68.90;;;;;;7365553;19;20649;-68
2022/10/21 01:07:30;;;;;;;37.80;21.52;;;13.30;69.30;;;;;;7362032;19;20014;-68
2022/10/21 01:10:00;;;;;;;36.88;21.30;;;13.30;69.70;;;;;;7364598;19;20824;-68
2022/10/21 01:12:38;;;;;;;35.35;21.42;;;13.30;69.90;;;;;;7381319;19;20011;-69
2022/10/21 01:15:17;;;;;;;38.90;22.17;;;13.30;70.00;;;;;;7365335;19;20079;-69
2022/10/21 01:17:55;;;;;;;37.80;21.45;;;13.30;70.30;;;;;;7362694;19;20216;-69
2022/10/21 01:20:44;;;;;;;33.95;21.98;;;13.30;70.50;;;;;;7364691;19;20022;-69
2022/10/21 01:23:50;;;;;;;33.70;21.42;;;13.30;70.50;;;;;;7361519;19;20034;-67
2022/10/21 01:26:51;;;;;;;40.47;21.73;;;13.40;70.80;;;;;;7364279;19;20130;-68
2022/10/21 01:30:01;;;;;;;38.10;22.38;;;13.50;70.90;;;;;;7363188;19;20039;-68
2022/10/21 01:32:53;;;;;;;42.17;21.90;;;13.60;70.50;;;;;;7356710;19;20070;-68
2022/10/21 01:35:26;;;;;;;38.33;22.92;;;13.60;70.00;;;;;;7363998;19;20381;-68
2022/10/21 01:38:05;;;;;;;35.13;22.02;;;13.60;69.80;;;;;;7362934;19;20757;-68
2022/10/21 01:40:43;;;;;;;34.15;21.77;;;13.60;69.20;;;;;;7364961;19;20007;-68
2022/10/21 01:43:20;;;;;;;32.58;20.35;;;13.60;69.10;;;;;;7359137;19;20104;-68
2022/10/21 01:45:54;;;;;;;35.83;21.35;;;13.60;69.00;;;;;;7364676;19;20550;-68
2022/10/21 01:48:31;;;;;;;32.88;20.95;;;13.60;69.00;;;;;;7384208;19;20011;-69
2022/10/21 01:51:04;;;;;;;33.50;22.48;;;13.50;68.50;;;;;;7361543;19;20042;-68
2022/10/21 01:53:43;;;;;;;40.25;21.58;;;13.60;68.90;;;;;;7359980;19;20043;-68
2022/10/21 01:56:15;;;;;;;40.67;24.70;;;13.50;68.40;;;;;;7364898;19;20038;-68
2022/10/21 01:58:47;;;;;;;31.15;20.23;;;13.60;68.70;;;;;;7362201;19;20354;-68
2022/10/21 02:01:19;;;;;;;40.60;22.58;;;13.60;68.40;;;;;;7362200;19;20031;-68
2022/10/21 02:03:56;;;;;;;37.13;23.48;;;13.50;68.10;;;;;;7360022;19;20017;-69
2022/10/21 02:06:26;;;;;;;36.70;22.27;;;13.60;68.60;;;;;;7384311;19;20426;-68
2022/10/21 02:08:56;;;;;;;35.08;22.00;;;13.60;68.20;;;;;;7362106;19;20014;-68
2022/10/21 02:11:26;;;;;;;37.30;22.48;;;13.60;67.90;;;;;;7359177;19;20006;-68
2022/10/21 02:14:00;;;;;;;35.17;23.55;;;13.60;67.50;;;;;;7361492;19;20011;-68
2022/10/21 02:16:33;;;;;;;35.95;23.60;;;13.60;67.30;;;;;;7362469;19;20039;-69
2022/10/21 02:19:05;;;;;;;37.80;23.50;;;13.60;67.50;;;;;;7363254;19;20029;-69
2022/10/21 02:21:37;;;;;;;36.58;23.40;;;13.70;67.50;;;;;;7379830;19;20010;-69
2022/10/21 02:24:10;;;;;;;34.90;21.83;;;13.60;67.40;;;;;;7361010;19;20494;-69
2022/10/21 02:26:40;;;;;;;36.45;21.42;;;13.70;67.90;;;;;;7361691;19;20006;-68
2022/10/21 02:29:11;;;;;;;34.13;20.83;;;13.70;67.90;;;;;;7361470;19;20014;-68
2022/10/21 02:31:56;;;;;;;37.80;21.77;;;13.70;67.80;;;;;;7358775;19;20018;-68
2022/10/21 02:34:41;;;;;;;29.80;20.00;;;13.70;67.40;;;;;;7362473;19;20010;-68
2022/10/21 02:37:20;;;;;;;34.53;19.58;;;13.70;67.50;;;;;;7360968;19;20014;-68
2022/10/21 02:39:55;;;;;;;33.45;19.45;;;13.70;67.40;;;;;;7362107;19;20007;-68
2022/10/21 02:42:30;;;;;;;30.38;17.80;;;13.70;67.60;;;;;;7376656;19;20042;-68
2022/10/21 02:45:01;;;;;;;34.15;20.48;;;13.70;67.90;;;;;;7361681;19;20479;-68
2022/10/21 02:47:31;;;;;;;35.88;20.55;;;13.70;68.10;;;;;;7361363;19;20006;-68
2022/10/21 02:50:03;;;;;;;35.40;20.58;;;13.70;68.10;;;;;;7362228;19;20011;-68
2022/10/21 02:52:33;;;;;;;31.63;19.58;;;13.80;68.10;;;;;;7356295;19;20007;-69
2022/10/21 02:55:03;;;;;;;36.78;19.40;;;13.90;67.20;;;;;;7360035;19;20022;-69
2022/10/21 02:57:32;;;;;;;36.90;20.10;;;13.80;67.30;;;;;;7381472;19;20042;-69
2022/10/21 03:00:02;;;;;;;32.63;20.38;;;13.80;66.80;;;;;;7361151;19;20010;-69
2022/10/21 03:02:33;;;;;;;33.88;20.33;;;13.80;67.10;;;;;;7355487;19;20014;-69
2022/10/21 03:05:06;;;;;;;32.10;20.70;;;13.80;67.30;;;;;;7361363;19;20018;-68
2022/10/21 03:07:36;;;;;;;32.55;21.15;;;13.80;67.40;;;;;;7360605;19;20979;-68
2022/10/21 03:10:07;;;;;;;37.45;21.33;;;13.80;67.50;;;;;;7360643;19;20076;-68
2022/10/21 03:12:37;;;;;;;30.25;18.80;;;13.80;67.40;;;;;;7376487;19;20014;-68
2022/10/21 03:15:08;;;;;;;35.03;18.65;;;13.80;67.40;;;;;;7361766;19;20014;-69
2022/10/21 03:17:37;;;;;;;28.88;18.15;;;13.80;67.00;;;;;;7359007;19;20033;-68
2022/10/21 03:20:11;;;;;;;34.00;18.08;;;13.90;66.90;;;;;;7360837;19;20033;-68
2022/10/21 03:22:41;;;;;;;33.72;18.75;;;13.90;67.10;;;;;;7355067;19;20034;-68
2022/10/21 03:25:11;;;;;;;38.42;17.77;;;13.90;66.80;;;;;;7361351;19;20054;-67
2022/10/21 03:27:41;;;;;;;25.02;16.67;;;13.90;66.10;;;;;;7381059;19;20011;-67
2022/10/21 03:30:12;;;;;;;32.63;17.60;;;13.90;65.20;;;;;;7359503;19;20693;-68
2022/10/21 03:32:42;;;;;;;26.70;16.10;;;13.80;65.10;;;;;;7354101;19;20018;-68
2022/10/21 03:35:14;;;;;;;28.98;16.50;;;13.80;65.10;;;;;;7359711;19;20007;-68
2022/10/21 03:37:44;;;;;;;28.25;17.80;;;13.80;65.20;;;;;;7359775;19;20010;-68
2022/10/21 03:40:14;;;;;;;26.27;16.45;;;13.90;65.40;;;;;;7359961;19;20006;-69
2022/10/21 03:42:44;;;;;;;29.65;18.50;;;13.90;65.60;;;;;;7366108;19;20015;-69
2022/10/21 03:45:14;;;;;;;30.90;16.02;;;13.90;65.90;;;;;;7382886;19;20015;-67
2022/10/21 03:47:44;;;;;;;28.60;16.25;;;13.90;65.50;;;;;;7358469;19;20018;-68
2022/10/21 03:50:16;;;;;;;31.17;16.88;;;13.90;65.40;;;;;;7358177;19;20010;-68
2022/10/21 03:52:52;;;;;;;31.13;17.13;;;14.00;65.30;;;;;;7353805;19;20007;-68
2022/10/21 03:55:24;;;;;;;30.42;17.40;;;14.00;65.20;;;;;;7357941;19;20691;-69
2022/10/21 03:57:54;;;;;;;26.40;17.13;;;14.00;65.20;;;;;;7357923;19;20332;-69
2022/10/21 04:00:24;;;;;;;31.42;17.20;;;14.00;65.20;;;;;;7382428;19;20011;-69
2022/10/21 04:02:58;;;;;;;;;;;14.10;65.00;;;;;;7354178;19;20101;-69
2022/10/21 04:05:30;;;;;;;28.15;16.75;;;14.20;64.10;;;;;;7359230;19;19934;-68
2022/10/21 04:08:00;;;;;;;28.33;16.13;;;14.30;63.50;;;;;;7364042;19;20011;-69
2022/10/21 04:10:29;;;;;;;31.60;16.73;;;14.30;63.10;;;;;;7366408;19;20011;-68
2022/10/21 04:12:59;;;;;;;28.25;17.08;;;14.30;64.40;;;;;;7361978;19;20006;-68
2022/10/21 04:15:29;;;;;;;28.75;16.42;;;14.30;66.00;;;;;;7389044;19;20082;-68
2022/10/21 04:17:59;;;;;;;30.50;18.80;;;14.20;66.70;;;;;;7363949;19;20002;-68
2022/10/21 04:20:31;;;;;;;29.90;17.85;;;14.20;67.40;;;;;;7367422;19;20006;-68
2022/10/21 04:23:01;;;;;;;31.15;19.08;;;14.20;67.70;;;;;;7360451;19;20011;-68
2022/10/21 04:25:31;;;;;;;34.72;19.05;;;14.20;68.40;;;;;;7366152;19;20828;-69
2022/10/21 04:28:00;;;;;;;34.67;20.23;;;14.20;68.70;;;;;;7365313;19;20530;-69
2022/10/21 04:30:30;;;;;;;30.08;19.05;;;14.20;69.40;;;;;;7387341;19;20050;-69
2022/10/21 04:33:00;;;;;;;33.55;19.48;;;14.20;69.60;;;;;;7358927;19;20018;-68
2022/10/21 04:35:32;;;;;;;37.95;19.67;;;14.10;69.60;;;;;;7365384;19;20525;-70
2022/10/21 04:38:02;;;;;;;31.38;17.90;;;14.10;69.60;;;;;;7366088;19;20007;-68
2022/10/21 04:40:32;;;;;;;29.33;17.25;;;14.10;69.90;;;;;;7366361;19;20010;-69
2022/10/21 04:43:02;;;;;;;30.80;18.02;;;14.00;70.00;;;;;;7360327;19;20022;-67
2022/10/21 04:45:32;;;;;;;29.65;17.85;;;14.10;70.00;;;;;;7387080;19;20010;-68
2022/10/21 04:48:02;;;;;;;31.48;17.83;;;14.00;69.90;;;;;;7363170;19;20014;-68
2022/10/21 04:50:34;;;;;;;29.98;18.80;;;14.00;70.40;;;;;;7364661;19;20006;-68
2022/10/21 04:53:04;;;;;;;34.65;18.63;;;14.10;70.30;;;;;;7358279;19;20023;-68
2022/10/21 04:55:33;;;;;;;34.22;18.40;;;14.10;70.30;;;;;;7364134;19;20011;-69
2022/10/21 04:58:03;;;;;;;30.00;17.52;;;14.00;70.20;;;;;;7364632;19;20016;-69
2022/10/21 05:00:33;;;;;;;34.13;17.80;;;14.00;70.50;;;;;;7388079;19;20807;-69
2022/10/21 05:03:03;;;;;;;27.17;17.55;;;14.10;70.70;;;;;;7357905;19;20014;-68
2022/10/21 05:05:36;;;;;;;31.20;18.08;;;14.10;70.50;;;;;;7364123;19;20010;-68
2022/10/21 05:08:06;;;;;;;30.58;17.08;;;14.00;70.20;;;;;;7363978;19;20014;-69
2022/10/21 05:10:40;;;;;;;27.77;17.10;;;14.00;70.40;;;;;;7363958;19;20486;-68
2022/10/21 05:13:10;;;;;;;31.33;16.25;;;14.00;70.20;;;;;;7361166;19;20025;-68
2022/10/21 05:15:40;;;;;;;24.42;16.63;;;14.00;70.00;;;;;;7387711;19;20014;-68
2022/10/21 05:18:09;;;;;;;30.38;17.77;;;14.10;70.10;;;;;;7359592;19;20026;-69
2022/10/21 05:20:42;;;;;;;24.60;16.05;;;14.10;70.20;;;;;;7363874;19;20026;-69
2022/10/21 05:23:12;;;;;;;27.60;16.52;;;14.10;70.40;;;;;;7359978;19;20027;-69
2022/10/21 05:25:41;;;;;;;27.45;16.88;;;14.10;70.60;;;;;;7363293;19;20007;-68
2022/10/21 05:28:11;;;;;;;27.92;16.63;;;14.10;70.60;;;;;;7363696;19;20035;-68
2022/10/21 05:30:41;;;;;;;34.58;16.95;;;14.10;70.70;;;;;;7385164;19;20335;-67
2022/10/21 05:33:11;;;;;;;26.13;16.58;;;14.10;70.90;;;;;;7358015;19;20018;-68
2022/10/21 05:35:43;;;;;;;30.65;17.13;;;14.10;71.10;;;;;;7362224;19;20550;-68
2022/10/21 05:38:13;;;;;;;33.05;16.38;;;14.20;71.30;;;;;;7362652;19;20015;-68
2022/10/21 05:40:43;;;;;;;29.45;16.90;;;14.20;71.60;;;;;;7361154;19;20017;-69
2022/10/21 05:43:13;;;;;;;37.17;17.63;;;14.20;72.00;;;;;;7360111;19;20007;-69
2022/10/21 05:45:42;;;;;;;24.42;14.80;;;14.20;71.90;;;;;;7384547;19;20021;-69
2022/10/21 05:48:12;;;;;;;28.90;16.05;;;14.20;71.90;;;;;;7359699;19;20042;-69
2022/10/21 05:50:54;;;;;;;27.25;15.82;;;14.30;72.10;;;;;;7359336;19;20755;-69
2022/10/21 05:53:25;;;;;;;28.95;16.67;;;14.30;72.00;;;;;;7358321;19;20013;-67
2022/10/21 05:55:58;;;;;;;29.63;15.52;;;14.30;72.20;;;;;;7359097;19;20177;-68
2022/10/21 05:58:29;;;;;;;26.25;15.60;;;14.30;72.40;;;;;;7361348;19;20011;-68
2022/10/21 06:00:59;;;;;;;25.25;15.93;;;14.30;72.50;;;;;;7360393;19;20014;-68
2022/10/21 06:03:31;;;;;;;23.17;15.20;;;14.30;72.90;;;;;;7378945;19;20118;-69
2022/10/21 06:06:05;;;;;;;26.10;15.60;;;14.20;72.60;;;;;;7359873;19;20813;-69
2022/10/21 06:08:37;;;;;;;29.98;16.80;;;14.30;73.30;;;;;;7361604;19;20037;-68
2022/10/21 06:11:10;;;;;;;32.00;15.82;;;14.30;73.80;;;;;;7356398;19;20022;-68
2022/10/21 06:13:40;;;;;;;24.05;15.18;;;14.30;73.80;;;;;;7358640;19;20006;-66
2022/10/21 06:16:11;;;;;;;21.88;14.90;;;14.20;73.80;;;;;;7360611;19;20021;-67
2022/10/21 06:18:42;;;;;;;28.30;15.25;;;14.20;74.70;;;;;;7383651;19;20025;-69
2022/10/21 06:21:15;;;;;;;30.42;14.80;;;14.20;74.80;;;;;;7359097;19;20011;-68
2022/10/21 06:23:45;;;;;;;27.42;16.00;;;14.20;75.90;;;;;;7355113;19;20018;-69
2022/10/21 06:26:16;;;;;;;28.33;16.42;;;14.20;76.50;;;;;;7360072;19;20010;-68
2022/10/21 06:28:46;;;;;;;26.83;14.95;;;14.30;77.50;;;;;;7361205;19;20026;-69
2022/10/21 06:31:19;;;;;;;25.60;14.30;;;14.30;77.80;;;;;;7356732;19;20073;-70
2022/10/21 06:33:49;;;;;;;30.15;15.88;;;14.30;77.90;;;;;;7355511;19;20018;-70
2022/10/21 06:36:22;;;;;;;27.35;14.75;;;14.40;78.00;;;;;;7379997;19;20025;-69
2022/10/21 06:38:51;;;;;;;30.25;14.00;;;14.40;78.00;;;;;;7359975;19;20017;-68
2022/10/21 06:41:21;;;;;;;25.85;14.20;;;14.40;78.10;;;;;;7358217;19;20011;-69
2022/10/21 06:43:51;;;;;;;26.05;13.32;;;14.40;78.10;;;;;;7359203;19;20010;-68
2022/10/21 06:46:21;;;;;;;23.13;14.18;;;14.40;78.10;;;;;;7358949;19;20010;-69
2022/10/21 06:48:51;;;;;;;24.27;13.50;;;14.40;78.10;;;;;;7361832;19;20590;-69
2022/10/21 06:51:24;;;;;;;26.10;13.27;;;14.50;78.20;;;;;;7381104;19;20015;-69
2022/10/21 06:53:55;;;;;;;24.13;13.40;;;14.50;78.10;;;;;;7359516;19;20035;-68
2022/10/21 06:56:26;;;;;;;23.23;12.18;;;14.50;78.10;;;;;;7360299;19;20782;-69
2022/10/21 06:59:00;;;;;;;23.40;12.55;;;14.50;78.10;;;;;;7361865;19;20608;-69
2022/10/21 07:01:32;;;;;;;20.50;11.70;;;14.50;78.20;;;;;;7356879;19;21089;-69
2022/10/21 07:04:22;;;;;;;25.13;11.38;;;14.50;78.10;;;;;;7359689;19;20019;-68
2022/10/21 07:06:54;;;;;;;25.23;11.80;;;14.60;78.20;;;;;;7359276;19;20017;-68
2022/10/21 07:09:24;;;;;;;27.58;12.02;;;14.60;78.20;;;;;;7382527;19;20044;-69
2022/10/21 07:11:54;;;;;;;25.60;12.73;;;14.60;78.20;;;;;;7355880;19;20010;-69
2022/10/21 07:14:24;;;;;;;20.92;11.90;;;14.70;78.40;;;;;;7360314;19;20035;-68
2022/10/21 07:16:54;;;;;;;25.48;12.45;;;14.70;78.40;;;;;;7355973;19;20467;-69
2022/10/21 07:19:24;;;;;;;23.48;13.90;;;14.70;78.40;;;;;;7360474;19;20010;-69
2022/10/21 07:21:56;;;;;;;23.85;11.52;;;14.70;78.50;;;;;;7356253;19;20371;-68
2022/10/21 07:24:26;;;;;;;22.33;12.65;;;14.80;78.50;;;;;;7379777;19;20038;-69
2022/10/21 07:26:56;;;;;;;21.65;11.07;;;14.70;78.40;;;;;;7356423;19;20018;-69
2022/10/21 07:29:26;;;;;;;19.33;10.45;;;14.70;78.40;;;;;;7359666;19;20014;-69
2022/10/21 07:31:55;;;;;;;20.38;10.30;;;14.80;78.60;;;;;;7353062;19;20014;-67
2022/10/21 07:34:26;;;;;;;24.02;11.35;;;14.80;78.60;;;;;;7358836;19;20006;-69
2022/10/21 07:37:01;;;;;;;21.35;12.20;;;14.80;78.60;;;;;;7357674;19;20025;-68
2022/10/21 07:39:31;;;;;;;25.00;11.45;;;14.90;78.60;;;;;;7381410;19;20018;-68
2022/10/21 07:42:01;;;;;;;21.98;9.88;;;14.90;78.70;;;;;;7351955;19;20037;-69
2022/10/21 07:44:31;;;;;;;20.13;10.63;;;14.90;78.60;;;;;;7357822;19;20007;-68
2022/10/21 07:47:00;;;;;;;20.67;10.88;;;14.90;78.70;;;;;;7355090;19;20015;-69
2022/10/21 07:49:30;;;;;;;20.85;12.23;;;14.90;78.50;;;;;;7359205;19;20010;-69
2022/10/21 07:52:02;;;;;;;23.50;12.80;;;14.90;78.60;;;;;;7354825;19;20055;-67
2022/10/21 07:54:32;;;;;;;24.23;11.93;;;14.90;78.60;;;;;;7379135;19;20015;-68
2022/10/21 07:57:02;;;;;;;24.65;12.52;;;14.90;78.60;;;;;;7357306;19;20011;-68
2022/10/21 07:59:32;;;;;;;26.75;12.63;;;14.80;78.60;;;;;;7358300;19;20534;-68
2022/10/21 08:02:01;;;;;;;28.33;13.95;;;14.80;78.70;;;;;;7354439;19;20013;-69
2022/10/21 08:04:32;;;;;;;23.17;12.10;;;14.90;78.90;;;;;;7358602;19;20031;-69
2022/10/21 08:07:04;;;;;;;29.35;13.02;;;14.90;79.00;;;;;;7356711;19;20039;-69
2022/10/21 08:09:39;;;;;;;21.30;10.43;;;14.90;79.00;;;;;;7381273;19;20014;-68
2022/10/21 08:12:08;;;;;;;21.38;9.40;;;15.00;79.20;;;;;;7354008;19;20014;-69
2022/10/21 08:14:43;;;;;;;19.38;9.45;;;15.00;79.20;;;;;;7356344;19;20011;-69
2022/10/21 08:17:13;;;;;;;20.50;8.60;;;15.00;79.30;;;;;;7355960;19;20407;-68
2022/10/21 08:19:43;;;;;;;20.40;10.20;;;15.00;79.00;;;;;;7357090;19;20471;-69
2022/10/21 08:22:15;;;;;;;28.90;9.35;;;15.00;79.10;;;;;;7353820;19;20040;-67
2022/10/21 08:24:45;;;;;;;20.88;9.10;;;15.00;79.00;;;;;;7358100;19;20039;-69
2022/10/21 08:27:15;;;;;;;20.58;9.90;;;15.10;78.90;;;;;;7378356;19;20542;-69
2022/10/21 08:29:45;;;;;;;18.70;9.30;;;15.00;78.70;;;;;;7356931;19;20494;-69
2022/10/21 08:32:15;;;;;;;17.23;9.73;;;15.10;78.80;;;;;;7353906;19;20019;-68
2022/10/21 08:34:45;;;;;;;23.95;11.10;;;15.10;78.80;;;;;;7357332;19;20043;-68
2022/10/21 08:37:17;;;;;;;21.08;11.23;;;15.10;78.70;;;;;;7355334;19;20629;-68
2022/10/21 08:39:54;;;;;;;19.35;10.45;;;15.10;78.60;;;;;;7355822;19;20006;-68
2022/10/21 08:42:24;;;;;;;17.90;9.15;;;15.10;78.70;;;;;;7374443;19;20517;-69
2022/10/21 08:45:01;;;;;;;18.85;8.63;;;15.10;78.70;;;;;;7354155;19;20471;-69
2022/10/21 08:47:43;;;;;;;17.13;9.32;;;15.10;77.60;;;;;;7352099;19;20775;-69
2022/10/21 08:50:16;;;;;;;15.50;8.55;;;15.10;77.40;;;;;;7355742;19;20025;-68
2022/10/21 08:52:54;;;;;;;21.95;8.70;;;15.20;77.10;;;;;;7350823;19;20520;-68
2022/10/21 08:55:36;;;;;;;19.85;10.50;;;15.10;76.70;;;;;;7363782;19;20015;-68
2022/10/21 08:58:06;;;;;;;20.05;9.77;;;15.20;76.40;;;;;;7362379;19;20014;-71
2022/10/21 09:00:45;;;;;;;24.00;11.15;;;15.20;76.50;;;;;;7384252;19;20402;-69
2022/10/21 09:03:26;;;;;;;21.55;10.98;;;15.10;76.30;;;;;;7359666;19;20014;-68
2022/10/21 09:06:06;;;;;;;16.95;8.85;;;15.10;76.00;;;;;;7361881;19;20085;-69
2022/10/21 09:08:45;;;;;;;19.55;9.52;;;15.20;75.70;;;;;;7361177;19;20023;-68
2022/10/21 09:11:26;;;;;;;14.70;9.60;;;15.10;75.70;;;;;;7360051;19;20100;-68
2022/10/21 09:14:27;;;;;;;19.02;8.73;;;15.10;76.20;;;;;;7359423;19;20613;-68
2022/10/21 09:17:27;;;;;;;20.73;9.95;;;15.20;76.70;;;;;;7358316;19;20030;-69
2022/10/21 09:20:03;;;;;;;16.25;8.23;;;15.10;77.50;;;;;;7362447;19;20011;-68
2022/10/21 09:22:46;;;;;;;22.65;9.93;;;15.10;77.70;;;;;;7356866;19;20014;-69
2022/10/21 09:25:31;;;;;;;21.60;9.52;;;15.20;78.30;;;;;;7360370;19;20606;-69
2022/10/21 09:28:02;;;;;;;15.77;9.30;;;15.20;78.50;;;;;;7359872;19;20479;-68
2022/10/21 09:30:33;;;;;;;21.38;10.27;;;15.20;78.50;;;;;;7382639;19;20089;-69
2022/10/21 09:33:03;;;;;;;17.05;9.20;;;15.30;78.80;;;;;;7352330;19;20108;-69
2022/10/21 09:35:38;;;;;;;19.17;10.30;;;15.30;77.90;;;;;;7358878;19;20082;-67
2022/10/21 09:38:14;;;;;;;20.75;9.90;;;15.30;78.70;;;;;;7358816;19;20006;-67
2022/10/21 09:40:49;;;;;;;19.42;9.52;;;15.40;78.90;;;;;;7360498;19;20344;-68
2022/10/21 09:43:27;;;;;;;16.98;8.65;;;15.40;78.90;;;;;;7356756;19;20477;-68
2022/10/21 09:45:58;;;;;;;15.77;8.45;;;15.40;78.90;;;;;;7359925;19;20010;-69
2022/10/21 09:48:43;;;;;;;15.65;7.45;;;15.40;78.80;;;;;;7383037;19;20034;-69
2022/10/21 09:51:35;;;;;;;14.10;7.72;;;15.40;78.90;;;;;;7354904;19;20028;-68
2022/10/21 09:54:11;;;;;;;14.55;7.07;;;15.40;78.50;;;;;;7357240;19;20049;-68
2022/10/21 09:56:48;;;;;;;17.70;7.18;;;15.40;78.40;;;;;;7357879;19;20486;-68
2022/10/21 09:59:22;;;;;;;14.07;6.75;;;15.40;78.00;;;;;;7360297;19;20018;-68
2022/10/21 10:01:52;;;;;;;14.98;6.93;;;15.50;78.50;;;;;;7354395;19;20006;-68
2022/10/21 10:04:27;;;;;;;15.20;6.75;;;15.50;78.40;;;;;;7358332;19;20014;-68
2022/10/21 10:06:57;;;;;;;12.88;6.35;;;15.60;79.10;;;;;;7357620;19;20406;-69
2022/10/21 10:09:29;;;;;;;15.90;6.55;;;15.80;78.90;;;;;;7382448;19;20014;-68
2022/10/21 10:12:04;;;;;;;14.02;6.75;;;15.90;79.50;;;;;;7354037;19;20664;-68
2022/10/21 10:14:36;;;;;;;12.02;5.40;;;16.00;78.40;;;;;;7354828;19;20585;-69
2022/10/21 10:17:27;;;;;;;12.70;5.50;;;16.10;78.10;;;;;;7356218;19;21549;-69
2022/10/21 10:20:24;;;;;;;12.43;5.22;;;16.10;77.20;;;;;;7360433;19;20013;-68
2022/10/21 10:23:18;;;;;;;13.02;5.20;;;16.10;75.70;;;;;;7351063;19;20021;-68
2022/10/21 10:25:53;;;;;;;11.47;5.10;;;16.10;75.50;;;;;;7361988;19;20021;-68
2022/10/21 10:28:27;;;;;;;13.23;5.13;;;16.10;74.80;;;;;;7361325;19;20127;-68
2022/10/21 10:30:58;;;;;;;;;;;16.20;74.40;;;;;;7359529;19;20458;-69
2022/10/21 10:33:30;;;;;;;8.73;4.07;;;16.20;73.60;;;;;;7377827;19;20360;-69
2022/10/21 10:36:02;;;;;;;10.32;4.60;;;16.30;72.60;;;;;;7360144;19;20486;-68
2022/10/21 10:38:35;;;;;;;11.07;4.28;;;16.40;71.80;;;;;;7361481;19;20035;-69
2022/10/21 10:41:08;;;;;;;12.07;4.82;;;16.40;71.70;;;;;;7349278;19;20014;-68
2022/10/21 10:43:47;;;;;;;18.10;4.85;;;16.50;71.60;;;;;;7344292;19;20057;-68
2022/10/21 10:46:27;;;;;;;10.98;3.95;;;16.60;69.90;;;;;;7347142;19;20011;-68
2022/10/21 10:49:00;;;;;;;10.80;4.20;;;16.60;68.40;;;;;;7348965;19;20026;-68
2022/10/21 10:51:32;;;;;;;10.23;4.03;;;16.60;66.60;;;;;;7365609;19;20602;-69
2022/10/21 10:54:16;;;;;;;8.77;3.20;;;16.60;63.30;;;;;;7344485;19;20046;-69
2022/10/21 10:56:51;;;;;;;6.03;3.42;;;16.80;63.70;;;;;;7346793;19;20033;-69
2022/10/21 10:59:33;;;;;;;7.68;2.97;;;16.80;62.20;;;;;;7348379;19;20002;-69
2022/10/21 11:02:20;;;;;;;6.97;3.15;;;16.80;59.50;;;;;;7345496;19;20018;-69
2022/10/21 11:05:08;;;;;;;8.82;3.15;;;16.90;58.40;;;;;;7346736;19;20007;-69
2022/10/21 11:07:44;;;;;;;10.18;3.28;;;17.00;56.80;;;;;;7348244;19;20447;-68
2022/10/21 11:10:33;;;;;;;6.38;2.67;;;17.00;52.00;;;;;;7348032;19;20017;-68
2022/10/21 11:13:05;;;;;;;7.32;3.40;;;17.20;52.80;;;;;;7340944;19;20020;-68
2022/10/21 11:16:00;;;;;;;9.13;3.08;;;17.20;50.30;;;;;;7368882;19;20018;-68
2022/10/21 11:18:36;;;;;;;10.73;2.63;;;17.20;49.70;;;;;;7348432;19;20014;-70
2022/10/21 11:21:20;;;;;;;7.70;2.80;;;17.10;44.10;;;;;;7345298;19;20022;-68
2022/10/21 11:24:06;;;;;;;4.22;2.58;;;17.30;44.90;;;;;;7345410;19;20010;-68
2022/10/21 11:26:44;;;;;;;6.38;2.63;;;17.30;43.30;;;;;;7346880;19;20022;-69
2022/10/21 11:29:27;;;;;;;8.25;2.67;;;17.30;41.50;;;;;;7347679;19;20014;-68
2022/10/21 11:32:07;;;;;;;5.82;2.33;;;17.40;42.90;;;;;;7345844;19;20049;-68
2022/10/21 11:34:51;;;;;;;7.35;2.80;;;17.40;40.80;;;;;;7345229;19;20010;-67
2022/10/21 11:37:31;;;;;;;3.92;1.92;;;17.40;41.40;;;;;;7345099;19;20014;-67
2022/10/21 11:40:09;;;;;;;6.28;2.13;;;17.60;40.30;;;;;;7348400;19;20136;-68
2022/10/21 11:42:42;;;;;;;9.05;2.03;;;17.70;39.60;;;;;;7365515;19;20478;-68
2022/10/21 11:45:32;;;;;;;5.68;2.50;;;17.80;39.00;;;;;;7346214;19;20029;-68
2022/10/21 11:48:16;;;;;;;5.57;2.17;;;17.80;36.80;;;;;;7345829;19;20037;-70
2022/10/21 11:50:57;;;;;;;6.25;1.60;;;17.90;34.40;;;;;;7345301;19;20018;-67
2022/10/21 11:53:39;;;;;;;;;;;18.00;31.70;;;;;;7345422;19;20021;-68
2022/10/21 11:56:22;;;;;;;4.22;1.00;;;17.90;29.40;;;;;;7347001;19;20274;-68
2022/10/21 11:59:04;;;;;;;4.03;1.60;;;17.90;31.00;;;;;;7348262;19;20019;-68
2022/10/21 12:01:45;;;;;;;3.83;1.60;;;17.90;27.50;;;;;;7343239;19;20029;-68
2022/10/21 12:04:34;;;;;;;4.88;1.52;;;18.00;29.50;;;;;;7344711;19;20496;-68
2022/10/21 12:07:20;;;;;;;4.15;1.40;;;17.90;32.50;;;;;;7345641;19;20407;-68
2022/10/21 12:09:57;;;;;;;5.47;1.33;;;17.80;28.80;;;;;;7348566;19;20014;-68
2022/10/21 12:12:33;;;;;;;3.35;1.02;;;17.80;31.80;;;;;;7365761;19;20494;-68
2022/10/21 12:15:06;;;;;;;2.50;1.23;;;17.80;29.90;;;;;;7345929;19;20486;-69
2022/10/21 12:17:37;;;;;;;2.92;1.00;;;17.80;30.50;;;;;;7344915;19;20018;-68
2022/10/21 12:20:18;;;;;;;3.00;1.40;;;17.70;30.90;;;;;;7347872;19;20015;-69
2022/10/21 12:22:59;;;;;;;3.38;1.42;;;17.70;31.60;;;;;;7343151;19;20011;-69
2022/10/21 12:25:39;;;;;;;2.05;0.90;;;17.60;28.90;;;;;;7348249;19;20011;-70
2022/10/21 12:28:15;;;;;;;2.50;1.13;;;17.60;28.80;;;;;;7347035;19;20039;-68
2022/10/21 12:30:52;;;;;;;4.07;1.10;;;17.60;29.20;;;;;;7358229;19;20019;-69
2022/10/21 12:33:37;;;;;;;3.63;1.15;;;17.60;30.00;;;;;;7370147;19;20594;-67
2022/10/21 12:36:16;;;;;;;;;;;17.60;29.50;;;;;;7352347;19;20015;-68
2022/10/21 12:38:49;;;;;;;3.03;0.73;;;17.70;30.40;;;;;;7352775;19;19926;-68
2022/10/21 12:41:29;;;;;;;2.47;1.13;;;17.70;30.90;;;;;;7351263;19;20010;-69
2022/10/21 12:44:14;;;;;;;4.07;1.20;;;17.70;28.50;;;;;;7353118;19;20019;-68
2022/10/21 12:46:47;;;;;;;3.72;1.20;;;17.70;29.20;;;;;;7351100;19;20014;-69
2022/10/21 12:49:32;;;;;;;3.33;1.10;;;17.70;29.00;;;;;;7351867;19;20518;-68
2022/10/21 12:52:14;;;;;;;5.03;1.50;;;17.70;27.20;;;;;;7347425;19;20038;-68
2022/10/21 12:54:56;;;;;;;1.40;0.70;;;17.60;26.50;;;;;;7366960;19;20443;-70
2022/10/21 12:57:29;;;;;;;2.67;0.95;;;17.60;25.10;;;;;;7370339;19;20025;-68
2022/10/21 13:00:18;;;;;;;2.65;1.25;;;17.60;26.10;;;;;;7352520;19;20455;-68
2022/10/21 13:03:03;;;;;;;2.38;0.73;;;17.60;25.90;;;;;;7348221;19;20035;-68
2022/10/21 13:06:01;;;;;;;4.13;1.00;;;17.60;23.50;;;;;;7352351;19;20417;-69
2022/10/21 13:08:53;;;;;;;2.50;1.00;;;17.60;25.00;;;;;;7352249;19;20022;-69
2022/10/21 13:11:25;;;;;;;3.13;0.90;;;17.60;26.00;;;;;;7350862;19;20010;-68